sensor_id;sensor_type;location;lat;lon;timestamp;temperature;humidity
17571;DHT22;8903;52.220;20.978;2022-09-01T00:01:44;14.00;99.90
17571;DHT22;8903;52.220;20.978;2022-09-01T00:04:12;14.00;99.90
17571;DHT22;8903;52.220;20.978;2022-09-01T00:06:40;13.90;99.90
17571;DHT22;8903;52.220;20.978;2022-09-01T00:09:08;13.90;99.90
17571;DHT22;8903;52.220;20.978;2022-09-01T00:11:35;13.80;99.90
17571;DHT22;8903;52.220;20.978;2022-09-01T00:14:02;13.80;99.90
17571;DHT22;8903;52.220;20.978;2022-09-01T00:16:30;13.70;99.90
17571;DHT22;8903;52.220;20.978;2022-09-01T00:18:58;13.70;99.90
17571;DHT22;8903;52.220;20.978;2022-09-01T00:21:26;13.70;99.90
17571;DHT22;8903;52.220;20.978;2022-09-01T00:23:53;13.60;99.90
17571;DHT22;8903;52.220;20.978;2022-09-01T00:26:20;13.60;99.90
17571;DHT22;8903;52.220;20.978;2022-09-01T00:28:46;13.50;99.90
17571;DHT22;8903;52.220;20.978;2022-09-01T00:31:14;13.50;99.90
17571;DHT22;8903;52.220;20.978;2022-09-01T00:33:43;13.40;99.90
17571;DHT22;8903;52.220;20.978;2022-09-01T00:36:11;13.40;99.90
17571;DHT22;8903;52.220;20.978;2022-09-01T00:38:38;13.40;99.90
17571;DHT22;8903;52.220;20.978;2022-09-01T00:41:05;13.30;99.90
17571;DHT22;8903;52.220;20.978;2022-09-01T00:43:37;13.30;99.90
17571;DHT22;8903;52.220;20.978;2022-09-01T00:46:05;13.20;99.90
17571;DHT22;8903;52.220;20.978;2022-09-01T00:48:32;13.20;99.90
17571;DHT22;8903;52.220;20.978;2022-09-01T00:50:58;13.20;99.90
17571;DHT22;8903;52.220;20.978;2022-09-01T00:53:27;13.10;99.90
17571;DHT22;8903;52.220;20.978;2022-09-01T00:55:54;13.10;99.90
17571;DHT22;8903;52.220;20.978;2022-09-01T00:58:20;13.10;99.90
17571;DHT22;8903;52.220;20.978;2022-09-01T01:00:48;13.00;99.90
17571;DHT22;8903;52.220;20.978;2022-09-01T01:03:16;13.00;99.90
17571;DHT22;8903;52.220;20.978;2022-09-01T01:05:44;12.90;99.90
17571;DHT22;8903;52.220;20.978;2022-09-01T01:08:16;12.90;99.90
17571;DHT22;8903;52.220;20.978;2022-09-01T01:10:45;12.90;99.90
17571;DHT22;8903;52.220;20.978;2022-09-01T01:13:13;12.90;99.90
17571;DHT22;8903;52.220;20.978;2022-09-01T01:15:40;12.90;99.90
17571;DHT22;8903;52.220;20.978;2022-09-01T01:18:08;12.90;99.90
17571;DHT22;8903;52.220;20.978;2022-09-01T01:20:35;12.90;99.90
17571;DHT22;8903;52.220;20.978;2022-09-01T01:23:22;12.90;99.90
17571;DHT22;8903;52.220;20.978;2022-09-01T01:25:53;12.90;99.90
17571;DHT22;8903;52.220;20.978;2022-09-01T01:28:22;12.80;99.90
17571;DHT22;8903;52.220;20.978;2022-09-01T01:30:52;12.90;99.90
17571;DHT22;8903;52.220;20.978;2022-09-01T01:33:20;12.80;99.90
17571;DHT22;8903;52.220;20.978;2022-09-01T01:35:48;12.70;99.90
17571;DHT22;8903;52.220;20.978;2022-09-01T01:38:16;12.80;99.90
17571;DHT22;8903;52.220;20.978;2022-09-01T01:40:45;12.70;99.90
17571;DHT22;8903;52.220;20.978;2022-09-01T01:43:13;12.70;99.90
17571;DHT22;8903;52.220;20.978;2022-09-01T01:45:48;12.60;99.90
17571;DHT22;8903;52.220;20.978;2022-09-01T01:48:17;12.60;99.90
17571;DHT22;8903;52.220;20.978;2022-09-01T01:50:50;12.50;99.90
17571;DHT22;8903;52.220;20.978;2022-09-01T01:53:18;12.60;99.90
17571;DHT22;8903;52.220;20.978;2022-09-01T01:55:46;12.50;99.90
17571;DHT22;8903;52.220;20.978;2022-09-01T01:58:16;12.70;99.90
17571;DHT22;8903;52.220;20.978;2022-09-01T02:00:46;12.50;99.90
17571;DHT22;8903;52.220;20.978;2022-09-01T02:03:13;12.50;99.90
17571;DHT22;8903;52.220;20.978;2022-09-01T02:05:44;12.50;99.90
17571;DHT22;8903;52.220;20.978;2022-09-01T02:08:11;12.40;99.90
17571;DHT22;8903;52.220;20.978;2022-09-01T02:10:42;12.40;99.90
17571;DHT22;8903;52.220;20.978;2022-09-01T02:13:10;12.40;99.90
17571;DHT22;8903;52.220;20.978;2022-09-01T02:15:44;12.40;99.90
17571;DHT22;8903;52.220;20.978;2022-09-01T02:18:12;11.70;99.90
17571;DHT22;8903;52.220;20.978;2022-09-01T02:20:41;12.30;99.90
17571;DHT22;8903;52.220;20.978;2022-09-01T02:23:08;12.30;99.90
17571;DHT22;8903;52.220;20.978;2022-09-01T02:25:37;12.20;99.90
17571;DHT22;8903;52.220;20.978;2022-09-01T02:28:09;12.20;99.90
17571;DHT22;8903;52.220;20.978;2022-09-01T02:30:39;12.20;99.90
17571;DHT22;8903;52.220;20.978;2022-09-01T02:33:08;12.10;99.90
17571;DHT22;8903;52.220;20.978;2022-09-01T02:35:37;12.10;99.90
17571;DHT22;8903;52.220;20.978;2022-09-01T02:38:04;12.10;99.90
17571;DHT22;8903;52.220;20.978;2022-09-01T02:40:32;12.10;99.90
17571;DHT22;8903;52.220;20.978;2022-09-01T02:42:59;12.00;99.90
17571;DHT22;8903;52.220;20.978;2022-09-01T02:45:26;12.10;99.90
17571;DHT22;8903;52.220;20.978;2022-09-01T02:47:54;12.00;99.90
17571;DHT22;8903;52.220;20.978;2022-09-01T02:50:23;12.00;99.90
17571;DHT22;8903;52.220;20.978;2022-09-01T02:52:51;12.00;99.90
17571;DHT22;8903;52.220;20.978;2022-09-01T02:55:19;11.90;99.90
17571;DHT22;8903;52.220;20.978;2022-09-01T02:57:47;11.90;99.90
17571;DHT22;8903;52.220;20.978;2022-09-01T03:00:14;11.90;99.90
17571;DHT22;8903;52.220;20.978;2022-09-01T03:02:48;11.90;99.90
17571;DHT22;8903;52.220;20.978;2022-09-01T03:05:18;11.90;99.90
17571;DHT22;8903;52.220;20.978;2022-09-01T03:07:54;11.90;99.90
17571;DHT22;8903;52.220;20.978;2022-09-01T03:10:25;11.80;99.90
17571;DHT22;8903;52.220;20.978;2022-09-01T03:12:58;11.80;99.90
17571;DHT22;8903;52.220;20.978;2022-09-01T03:15:26;11.80;99.90
17571;DHT22;8903;52.220;20.978;2022-09-01T03:17:53;11.80;99.90
17571;DHT22;8903;52.220;20.978;2022-09-01T03:20:20;11.70;99.90
17571;DHT22;8903;52.220;20.978;2022-09-01T03:22:48;11.70;99.90
17571;DHT22;8903;52.220;20.978;2022-09-01T03:25:17;11.70;99.90
17571;DHT22;8903;52.220;20.978;2022-09-01T03:27:46;11.70;99.90
17571;DHT22;8903;52.220;20.978;2022-09-01T03:30:14;11.60;99.90
17571;DHT22;8903;52.220;20.978;2022-09-01T03:32:40;11.60;99.90
17571;DHT22;8903;52.220;20.978;2022-09-01T03:35:09;11.60;99.90
17571;DHT22;8903;52.220;20.978;2022-09-01T03:37:37;11.60;99.90
17571;DHT22;8903;52.220;20.978;2022-09-01T03:40:04;11.60;99.90
17571;DHT22;8903;52.220;20.978;2022-09-01T03:42:35;11.60;99.90
17571;DHT22;8903;52.220;20.978;2022-09-01T03:45:02;11.60;99.90
17571;DHT22;8903;52.220;20.978;2022-09-01T03:47:34;11.50;99.90
17571;DHT22;8903;52.220;20.978;2022-09-01T03:50:07;11.50;99.90
17571;DHT22;8903;52.220;20.978;2022-09-01T03:52:37;11.50;99.90
17571;DHT22;8903;52.220;20.978;2022-09-01T03:55:06;11.40;99.90
17571;DHT22;8903;52.220;20.978;2022-09-01T03:57:35;11.50;99.90
17571;DHT22;8903;52.220;20.978;2022-09-01T04:00:08;11.40;99.90
17571;DHT22;8903;52.220;20.978;2022-09-01T04:02:46;11.40;99.90
17571;DHT22;8903;52.220;20.978;2022-09-01T04:05:16;11.40;99.90
17571;DHT22;8903;52.220;20.978;2022-09-01T04:07:43;11.40;99.90
17571;DHT22;8903;52.220;20.978;2022-09-01T04:10:11;11.40;99.90
17571;DHT22;8903;52.220;20.978;2022-09-01T04:12:42;11.50;99.90
17571;DHT22;8903;52.220;20.978;2022-09-01T04:15:10;11.40;99.90
17571;DHT22;8903;52.220;20.978;2022-09-01T04:17:37;11.50;99.90
17571;DHT22;8903;52.220;20.978;2022-09-01T04:20:22;11.50;99.90
17571;DHT22;8903;52.220;20.978;2022-09-01T04:22:50;11.50;99.90
17571;DHT22;8903;52.220;20.978;2022-09-01T04:25:17;11.50;99.90
17571;DHT22;8903;52.220;20.978;2022-09-01T04:27:51;11.60;99.90
17571;DHT22;8903;52.220;20.978;2022-09-01T04:30:21;11.60;99.90
17571;DHT22;8903;52.220;20.978;2022-09-01T04:32:58;11.60;99.90
17571;DHT22;8903;52.220;20.978;2022-09-01T04:35:26;11.60;99.90
17571;DHT22;8903;52.220;20.978;2022-09-01T04:37:57;11.60;99.90
17571;DHT22;8903;52.220;20.978;2022-09-01T04:40:25;11.60;99.90
17571;DHT22;8903;52.220;20.978;2022-09-01T04:42:55;11.60;99.90
17571;DHT22;8903;52.220;20.978;2022-09-01T04:45:22;11.60;99.90
17571;DHT22;8903;52.220;20.978;2022-09-01T04:47:49;11.60;99.90
17571;DHT22;8903;52.220;20.978;2022-09-01T04:50:17;14.40;99.90
17571;DHT22;8903;52.220;20.978;2022-09-01T04:53:25;11.80;99.90
17571;DHT22;8903;52.220;20.978;2022-09-01T04:55:52;11.80;99.90
17571;DHT22;8903;52.220;20.978;2022-09-01T04:58:23;11.90;99.90
17571;DHT22;8903;52.220;20.978;2022-09-01T05:00:50;11.90;99.90
17571;DHT22;8903;52.220;20.978;2022-09-01T05:03:18;12.00;99.90
17571;DHT22;8903;52.220;20.978;2022-09-01T05:06:15;12.10;99.90
17571;DHT22;8903;52.220;20.978;2022-09-01T05:08:55;12.10;99.90
17571;DHT22;8903;52.220;20.978;2022-09-01T05:11:52;12.20;99.90
17571;DHT22;8903;52.220;20.978;2022-09-01T05:14:28;12.30;99.90
17571;DHT22;8903;52.220;20.978;2022-09-01T05:16:55;12.30;99.90
17571;DHT22;8903;52.220;20.978;2022-09-01T05:19:24;12.40;99.90
17571;DHT22;8903;52.220;20.978;2022-09-01T05:21:55;12.50;99.90
17571;DHT22;8903;52.220;20.978;2022-09-01T05:24:27;12.50;99.90
17571;DHT22;8903;52.220;20.978;2022-09-01T05:26:57;12.60;99.90
17571;DHT22;8903;52.220;20.978;2022-09-01T05:29:29;12.60;99.90
17571;DHT22;8903;52.220;20.978;2022-09-01T05:31:56;12.70;99.90
17571;DHT22;8903;52.220;20.978;2022-09-01T05:34:26;12.80;99.90
17571;DHT22;8903;52.220;20.978;2022-09-01T05:36:58;12.90;99.90
17571;DHT22;8903;52.220;20.978;2022-09-01T05:39:26;13.00;99.90
17571;DHT22;8903;52.220;20.978;2022-09-01T05:41:54;13.00;99.90
17571;DHT22;8903;52.220;20.978;2022-09-01T05:44:22;13.10;99.90
17571;DHT22;8903;52.220;20.978;2022-09-01T05:46:53;13.20;99.90
17571;DHT22;8903;52.220;20.978;2022-09-01T05:49:20;13.30;99.90
17571;DHT22;8903;52.220;20.978;2022-09-01T05:51:49;13.40;99.90
17571;DHT22;8903;52.220;20.978;2022-09-01T05:54:19;13.50;99.90
17571;DHT22;8903;52.220;20.978;2022-09-01T05:56:47;13.60;99.90
17571;DHT22;8903;52.220;20.978;2022-09-01T05:59:19;13.60;99.90
17571;DHT22;8903;52.220;20.978;2022-09-01T06:01:49;13.70;99.90
17571;DHT22;8903;52.220;20.978;2022-09-01T06:04:19;13.80;99.90
17571;DHT22;8903;52.220;20.978;2022-09-01T06:06:47;13.90;99.90
17571;DHT22;8903;52.220;20.978;2022-09-01T06:09:16;14.00;99.90
17571;DHT22;8903;52.220;20.978;2022-09-01T06:11:45;14.10;99.90
17571;DHT22;8903;52.220;20.978;2022-09-01T06:14:13;14.20;99.90
17571;DHT22;8903;52.220;20.978;2022-09-01T06:16:41;14.30;99.90
17571;DHT22;8903;52.220;20.978;2022-09-01T06:19:10;14.40;99.90
17571;DHT22;8903;52.220;20.978;2022-09-01T06:21:43;14.50;99.90
17571;DHT22;8903;52.220;20.978;2022-09-01T06:24:10;14.60;99.90
17571;DHT22;8903;52.220;20.978;2022-09-01T06:26:38;14.80;99.90
17571;DHT22;8903;52.220;20.978;2022-09-01T06:29:07;14.90;99.90
17571;DHT22;8903;52.220;20.978;2022-09-01T06:31:44;15.00;99.90
17571;DHT22;8903;52.220;20.978;2022-09-01T06:34:16;15.00;99.90
17571;DHT22;8903;52.220;20.978;2022-09-01T06:36:46;15.00;99.90
17571;DHT22;8903;52.220;20.978;2022-09-01T06:39:17;15.10;99.90
17571;DHT22;8903;52.220;20.978;2022-09-01T06:41:48;15.20;99.90
17571;DHT22;8903;52.220;20.978;2022-09-01T06:44:20;15.30;99.90
17571;DHT22;8903;52.220;20.978;2022-09-01T06:46:56;15.30;99.90
17571;DHT22;8903;52.220;20.978;2022-09-01T06:49:24;15.40;99.90
17571;DHT22;8903;52.220;20.978;2022-09-01T06:51:58;15.40;99.90
17571;DHT22;8903;52.220;20.978;2022-09-01T06:54:26;15.50;99.90
17571;DHT22;8903;52.220;20.978;2022-09-01T06:56:54;15.70;99.90
17571;DHT22;8903;52.220;20.978;2022-09-01T06:59:22;15.80;99.90
17571;DHT22;8903;52.220;20.978;2022-09-01T07:01:50;16.00;99.90
17571;DHT22;8903;52.220;20.978;2022-09-01T07:04:28;16.00;99.90
17571;DHT22;8903;52.220;20.978;2022-09-01T07:07:03;16.00;99.90
17571;DHT22;8903;52.220;20.978;2022-09-01T07:09:34;16.00;99.90
17571;DHT22;8903;52.220;20.978;2022-09-01T07:12:27;16.00;99.90
17571;DHT22;8903;52.220;20.978;2022-09-01T07:14:56;16.20;99.90
17571;DHT22;8903;52.220;20.978;2022-09-01T07:17:24;16.30;99.90
17571;DHT22;8903;52.220;20.978;2022-09-01T07:19:54;16.40;99.90
17571;DHT22;8903;52.220;20.978;2022-09-01T07:22:25;16.60;99.90
17571;DHT22;8903;52.220;20.978;2022-09-01T07:24:52;16.80;99.90
17571;DHT22;8903;52.220;20.978;2022-09-01T07:27:47;16.80;99.90
17571;DHT22;8903;52.220;20.978;2022-09-01T07:30:16;16.50;99.90
17571;DHT22;8903;52.220;20.978;2022-09-01T07:32:43;16.60;99.90
17571;DHT22;8903;52.220;20.978;2022-09-01T07:35:12;16.70;99.90
17571;DHT22;8903;52.220;20.978;2022-09-01T07:37:40;16.60;99.90
17571;DHT22;8903;52.220;20.978;2022-09-01T07:40:08;16.70;99.90
17571;DHT22;8903;52.220;20.978;2022-09-01T07:42:54;16.70;99.90
17571;DHT22;8903;52.220;20.978;2022-09-01T07:45:45;16.80;99.90
17571;DHT22;8903;52.220;20.978;2022-09-01T07:48:15;16.90;99.90
17571;DHT22;8903;52.220;20.978;2022-09-01T07:50:47;16.90;99.80
17571;DHT22;8903;52.220;20.978;2022-09-01T07:53:16;16.80;99.90
17571;DHT22;8903;52.220;20.978;2022-09-01T07:55:45;16.80;99.90
17571;DHT22;8903;52.220;20.978;2022-09-01T07:58:19;16.80;99.90
17571;DHT22;8903;52.220;20.978;2022-09-01T08:00:51;16.70;99.90
17571;DHT22;8903;52.220;20.978;2022-09-01T08:03:21;16.70;99.90
17571;DHT22;8903;52.220;20.978;2022-09-01T08:05:48;16.70;99.90
17571;DHT22;8903;52.220;20.978;2022-09-01T08:08:20;16.90;99.90
17571;DHT22;8903;52.220;20.978;2022-09-01T08:10:51;17.20;99.90
17571;DHT22;8903;52.220;20.978;2022-09-01T08:13:18;17.50;99.40
17571;DHT22;8903;52.220;20.978;2022-09-01T08:15:45;17.70;99.30
17571;DHT22;8903;52.220;20.978;2022-09-01T08:18:12;17.90;99.10
17571;DHT22;8903;52.220;20.978;2022-09-01T08:20:40;18.10;98.90
17571;DHT22;8903;52.220;20.978;2022-09-01T08:23:26;18.30;98.20
17571;DHT22;8903;52.220;20.978;2022-09-01T08:25:53;18.30;98.00
17571;DHT22;8903;52.220;20.978;2022-09-01T08:28:20;18.40;98.30
17571;DHT22;8903;52.220;20.978;2022-09-01T08:30:47;18.40;97.90
17571;DHT22;8903;52.220;20.978;2022-09-01T08:33:15;18.30;98.00
17571;DHT22;8903;52.220;20.978;2022-09-01T08:35:47;18.00;98.00
17571;DHT22;8903;52.220;20.978;2022-09-01T08:38:15;17.80;98.50
17571;DHT22;8903;52.220;20.978;2022-09-01T08:40:48;17.80;98.50
17571;DHT22;8903;52.220;20.978;2022-09-01T08:43:17;17.70;98.70
17571;DHT22;8903;52.220;20.978;2022-09-01T08:45:46;17.60;98.90
17571;DHT22;8903;52.220;20.978;2022-09-01T08:48:15;17.30;99.10
17571;DHT22;8903;52.220;20.978;2022-09-01T08:50:46;17.40;98.90
17571;DHT22;8903;52.220;20.978;2022-09-01T08:53:30;17.60;98.80
17571;DHT22;8903;52.220;20.978;2022-09-01T08:56:01;17.80;98.60
17571;DHT22;8903;52.220;20.978;2022-09-01T08:58:29;18.00;97.90
17571;DHT22;8903;52.220;20.978;2022-09-01T09:01:17;18.70;97.20
17571;DHT22;8903;52.220;20.978;2022-09-01T09:03:50;18.00;97.20
17571;DHT22;8903;52.220;20.978;2022-09-01T09:06:27;18.00;96.80
17571;DHT22;8903;52.220;20.978;2022-09-01T09:09:00;18.30;96.60
17571;DHT22;8903;52.220;20.978;2022-09-01T09:14:32;18.90;96.00
17571;DHT22;8903;52.220;20.978;2022-09-01T09:17:02;18.90;95.80
17571;DHT22;8903;52.220;20.978;2022-09-01T09:19:30;18.90;95.80
17571;DHT22;8903;52.220;20.978;2022-09-01T09:21:58;18.70;95.30
17571;DHT22;8903;52.220;20.978;2022-09-01T09:24:26;18.70;94.90
17571;DHT22;8903;52.220;20.978;2022-09-01T09:26:54;18.90;95.10
17571;DHT22;8903;52.220;20.978;2022-09-01T09:29:21;18.80;95.30
17571;DHT22;8903;52.220;20.978;2022-09-01T09:31:50;18.70;95.20
17571;DHT22;8903;52.220;20.978;2022-09-01T09:34:31;18.70;95.40
17571;DHT22;8903;52.220;20.978;2022-09-01T09:37:15;18.70;95.80
17571;DHT22;8903;52.220;20.978;2022-09-01T09:39:42;18.90;95.40
17571;DHT22;8903;52.220;20.978;2022-09-01T09:42:10;18.90;95.30
17571;DHT22;8903;52.220;20.978;2022-09-01T09:44:39;18.90;95.50
17571;DHT22;8903;52.220;20.978;2022-09-01T09:47:10;18.90;95.40
17571;DHT22;8903;52.220;20.978;2022-09-01T09:49:38;18.90;94.80
17571;DHT22;8903;52.220;20.978;2022-09-01T09:52:11;18.80;94.90
17571;DHT22;8903;52.220;20.978;2022-09-01T09:54:39;18.70;94.50
17571;DHT22;8903;52.220;20.978;2022-09-01T09:57:09;18.90;95.10
17571;DHT22;8903;52.220;20.978;2022-09-01T09:59:38;19.10;93.80
17571;DHT22;8903;52.220;20.978;2022-09-01T10:02:21;19.10;93.60
17571;DHT22;8903;52.220;20.978;2022-09-01T10:04:50;19.40;94.40
17571;DHT22;8903;52.220;20.978;2022-09-01T10:07:24;19.20;94.40
17571;DHT22;8903;52.220;20.978;2022-09-01T10:09:52;19.20;94.50
17571;DHT22;8903;52.220;20.978;2022-09-01T10:12:20;19.10;94.40
17571;DHT22;8903;52.220;20.978;2022-09-01T10:14:49;19.10;94.80
17571;DHT22;8903;52.220;20.978;2022-09-01T10:17:19;19.00;94.00
17571;DHT22;8903;52.220;20.978;2022-09-01T10:19:49;19.10;94.60
17571;DHT22;8903;52.220;20.978;2022-09-01T10:22:16;18.90;92.60
17571;DHT22;8903;52.220;20.978;2022-09-01T10:24:43;18.70;92.90
17571;DHT22;8903;52.220;20.978;2022-09-01T10:27:12;18.90;93.20
17571;DHT22;8903;52.220;20.978;2022-09-01T10:29:42;19.10;93.20
17571;DHT22;8903;52.220;20.978;2022-09-01T10:32:11;19.30;92.80
17571;DHT22;8903;52.220;20.978;2022-09-01T10:34:40;19.50;92.80
17571;DHT22;8903;52.220;20.978;2022-09-01T10:37:07;19.20;93.10
17571;DHT22;8903;52.220;20.978;2022-09-01T10:39:36;19.00;93.60
17571;DHT22;8903;52.220;20.978;2022-09-01T10:42:25;19.10;92.90
17571;DHT22;8903;52.220;20.978;2022-09-01T10:44:55;19.10;92.70
17571;DHT22;8903;52.220;20.978;2022-09-01T10:47:23;19.30;92.80
17571;DHT22;8903;52.220;20.978;2022-09-01T10:50:00;19.50;92.40
17571;DHT22;8903;52.220;20.978;2022-09-01T10:55:09;19.20;92.00
17571;DHT22;8903;52.220;20.978;2022-09-01T10:57:43;18.90;92.00
17571;DHT22;8903;52.220;20.978;2022-09-01T11:08:38;19.00;92.70
17571;DHT22;8903;52.220;20.978;2022-09-01T11:11:06;19.10;92.90
17571;DHT22;8903;52.220;20.978;2022-09-01T11:13:35;19.10;92.00
17571;DHT22;8903;52.220;20.978;2022-09-01T11:16:28;19.20;91.90
17571;DHT22;8903;52.220;20.978;2022-09-01T11:18:56;19.40;92.00
17571;DHT22;8903;52.220;20.978;2022-09-01T11:21:41;19.40;92.30
17571;DHT22;8903;52.220;20.978;2022-09-01T11:26:55;19.70;91.90
17571;DHT22;8903;52.220;20.978;2022-09-01T11:32:07;20.80;90.30
17571;DHT22;8903;52.220;20.978;2022-09-01T11:34:36;20.00;90.60
17571;DHT22;8903;52.220;20.978;2022-09-01T11:37:09;21.00;88.20
17571;DHT22;8903;52.220;20.978;2022-09-01T11:39:41;22.30;85.10
17571;DHT22;8903;52.220;20.978;2022-09-01T11:42:11;23.30;83.50
17571;DHT22;8903;52.220;20.978;2022-09-01T11:44:44;23.20;83.80
17571;DHT22;8903;52.220;20.978;2022-09-01T11:47:14;22.70;83.90
17571;DHT22;8903;52.220;20.978;2022-09-01T11:49:46;22.20;84.60
17571;DHT22;8903;52.220;20.978;2022-09-01T11:52:14;21.50;85.00
17571;DHT22;8903;52.220;20.978;2022-09-01T11:54:41;21.30;85.70
17571;DHT22;8903;52.220;20.978;2022-09-01T11:57:19;21.10;86.30
17571;DHT22;8903;52.220;20.978;2022-09-01T11:59:46;20.80;86.60
17571;DHT22;8903;52.220;20.978;2022-09-01T12:02:17;20.50;87.30
17571;DHT22;8903;52.220;20.978;2022-09-01T12:04:44;20.20;86.90
17571;DHT22;8903;52.220;20.978;2022-09-01T12:07:12;20.20;87.70
17571;DHT22;8903;52.220;20.978;2022-09-01T12:09:40;21.50;87.50
17571;DHT22;8903;52.220;20.978;2022-09-01T12:14:55;25.30;79.10
17571;DHT22;8903;52.220;20.978;2022-09-01T12:17:22;25.40;75.80
17571;DHT22;8903;52.220;20.978;2022-09-01T12:19:49;25.70;76.10
17571;DHT22;8903;52.220;20.978;2022-09-01T12:22:16;26.70;73.50
17571;DHT22;8903;52.220;20.978;2022-09-01T12:24:44;27.20;72.10
17571;DHT22;8903;52.220;20.978;2022-09-01T12:27:11;27.40;72.20
17571;DHT22;8903;52.220;20.978;2022-09-01T12:29:38;25.50;74.20
17571;DHT22;8903;52.220;20.978;2022-09-01T12:32:06;23.50;79.20
17571;DHT22;8903;52.220;20.978;2022-09-01T12:34:39;22.40;81.70
17571;DHT22;8903;52.220;20.978;2022-09-01T12:37:08;21.30;84.30
17571;DHT22;8903;52.220;20.978;2022-09-01T12:39:36;21.80;82.90
17571;DHT22;8903;52.220;20.978;2022-09-01T12:42:04;24.00;77.80
17571;DHT22;8903;52.220;20.978;2022-09-01T12:44:32;25.50;74.20
17571;DHT22;8903;52.220;20.978;2022-09-01T12:47:00;25.80;72.90
17571;DHT22;8903;52.220;20.978;2022-09-01T12:49:38;26.30;71.60
17571;DHT22;8903;52.220;20.978;2022-09-01T12:52:11;27.50;70.80
17571;DHT22;8903;52.220;20.978;2022-09-01T12:54:39;28.30;68.60
17571;DHT22;8903;52.220;20.978;2022-09-01T12:57:06;28.80;67.60
17571;DHT22;8903;52.220;20.978;2022-09-01T12:59:32;29.00;66.90
17571;DHT22;8903;52.220;20.978;2022-09-01T13:04:42;26.50;71.00
17571;DHT22;8903;52.220;20.978;2022-09-01T13:07:09;25.60;72.00
17571;DHT22;8903;52.220;20.978;2022-09-01T13:09:36;24.20;75.10
17571;DHT22;8903;52.220;20.978;2022-09-01T13:12:09;23.20;77.80
17571;DHT22;8903;52.220;20.978;2022-09-01T13:14:36;22.80;79.10
17571;DHT22;8903;52.220;20.978;2022-09-01T13:17:02;22.40;80.00
17571;DHT22;8903;52.220;20.978;2022-09-01T13:19:30;21.90;80.90
17571;DHT22;8903;52.220;20.978;2022-09-01T13:21:58;21.50;80.80
17571;DHT22;8903;52.220;20.978;2022-09-01T13:24:25;21.10;81.90
17571;DHT22;8903;52.220;20.978;2022-09-01T13:26:52;20.80;83.00
17571;DHT22;8903;52.220;20.978;2022-09-01T13:29:22;20.60;83.80
17571;DHT22;8903;52.220;20.978;2022-09-01T13:31:49;20.50;84.40
17571;DHT22;8903;52.220;20.978;2022-09-01T13:34:15;20.30;85.20
17571;DHT22;8903;52.220;20.978;2022-09-01T13:36:42;20.20;86.10
17571;DHT22;8903;52.220;20.978;2022-09-01T13:39:10;20.10;87.10
17571;DHT22;8903;52.220;20.978;2022-09-01T13:41:37;19.90;88.30
17571;DHT22;8903;52.220;20.978;2022-09-01T13:44:04;19.90;88.20
17571;DHT22;8903;52.220;20.978;2022-09-01T13:46:31;20.40;87.90
17571;DHT22;8903;52.220;20.978;2022-09-01T13:48:58;21.50;85.50
17571;DHT22;8903;52.220;20.978;2022-09-01T13:51:25;22.50;83.50
17571;DHT22;8903;52.220;20.978;2022-09-01T13:53:52;23.10;79.90
17571;DHT22;8903;52.220;20.978;2022-09-01T13:56:20;23.10;79.70
17571;DHT22;8903;52.220;20.978;2022-09-01T13:58:46;23.40;78.60
17571;DHT22;8903;52.220;20.978;2022-09-01T14:01:13;23.70;78.10
17571;DHT22;8903;52.220;20.978;2022-09-01T14:03:41;24.30;77.40
17571;DHT22;8903;52.220;20.978;2022-09-01T14:06:08;24.80;76.70
17571;DHT22;8903;52.220;20.978;2022-09-01T14:08:35;23.70;78.90
17571;DHT22;8903;52.220;20.978;2022-09-01T14:11:01;23.20;81.90
17571;DHT22;8903;52.220;20.978;2022-09-01T14:13:30;23.10;82.10
17571;DHT22;8903;52.220;20.978;2022-09-01T14:15:57;22.90;82.20
17571;DHT22;8903;52.220;20.978;2022-09-01T14:18:24;22.50;82.90
17571;DHT22;8903;52.220;20.978;2022-09-01T14:21:01;22.10;83.60
17571;DHT22;8903;52.220;20.978;2022-09-01T14:23:28;21.90;84.40
17571;DHT22;8903;52.220;20.978;2022-09-01T14:25:54;21.70;84.20
17571;DHT22;8903;52.220;20.978;2022-09-01T14:28:22;21.50;84.60
17571;DHT22;8903;52.220;20.978;2022-09-01T14:30:50;21.20;84.70
17571;DHT22;8903;52.220;20.978;2022-09-01T14:33:18;20.90;85.60
17571;DHT22;8903;52.220;20.978;2022-09-01T14:35:48;21.30;86.20
17571;DHT22;8903;52.220;20.978;2022-09-01T14:38:15;23.10;83.90
17571;DHT22;8903;52.220;20.978;2022-09-01T14:40:42;24.30;81.40
17571;DHT22;8903;52.220;20.978;2022-09-01T14:43:12;26.20;77.50
17571;DHT22;8903;52.220;20.978;2022-09-01T14:45:40;27.50;75.00
17571;DHT22;8903;52.220;20.978;2022-09-01T14:48:10;28.60;73.30
17571;DHT22;8903;52.220;20.978;2022-09-01T14:50:38;28.40;72.20
17571;DHT22;8903;52.220;20.978;2022-09-01T14:53:05;27.10;73.40
17571;DHT22;8903;52.220;20.978;2022-09-01T14:55:32;26.50;74.70
17571;DHT22;8903;52.220;20.978;2022-09-01T14:57:59;27.20;74.60
17571;DHT22;8903;52.220;20.978;2022-09-01T15:00:26;27.80;73.30
17571;DHT22;8903;52.220;20.978;2022-09-01T15:02:54;28.70;73.20
17571;DHT22;8903;52.220;20.978;2022-09-01T15:05:22;29.00;70.90
17571;DHT22;8903;52.220;20.978;2022-09-01T15:07:49;28.30;72.00
17571;DHT22;8903;52.220;20.978;2022-09-01T15:10:17;28.70;71.30
17571;DHT22;8903;52.220;20.978;2022-09-01T15:12:45;29.60;71.10
17571;DHT22;8903;52.220;20.978;2022-09-01T15:15:14;30.00;68.80
17571;DHT22;8903;52.220;20.978;2022-09-01T15:17:41;30.50;67.90
17571;DHT22;8903;52.220;20.978;2022-09-01T15:20:08;31.00;66.40
17571;DHT22;8903;52.220;20.978;2022-09-01T15:22:53;31.00;66.00
17571;DHT22;8903;52.220;20.978;2022-09-01T15:25:20;31.20;65.50
17571;DHT22;8903;52.220;20.978;2022-09-01T15:27:47;31.20;65.00
17571;DHT22;8903;52.220;20.978;2022-09-01T15:30:14;29.90;66.00
17571;DHT22;8903;52.220;20.978;2022-09-01T15:32:41;28.40;68.20
17571;DHT22;8903;52.220;20.978;2022-09-01T15:35:08;27.40;69.60
17571;DHT22;8903;52.220;20.978;2022-09-01T15:37:37;26.60;71.00
17571;DHT22;8903;52.220;20.978;2022-09-01T15:40:07;25.80;72.30
17571;DHT22;8903;52.220;20.978;2022-09-01T15:42:34;25.00;74.40
17571;DHT22;8903;52.220;20.978;2022-09-01T15:45:03;24.10;76.00
17571;DHT22;8903;52.220;20.978;2022-09-01T15:47:30;23.20;78.30
17571;DHT22;8903;52.220;20.978;2022-09-01T15:49:56;22.70;79.80
17571;DHT22;8903;52.220;20.978;2022-09-01T15:52:24;22.10;80.00
17571;DHT22;8903;52.220;20.978;2022-09-01T15:54:51;21.60;81.50
17571;DHT22;8903;52.220;20.978;2022-09-01T15:57:19;21.20;82.60
17571;DHT22;8903;52.220;20.978;2022-09-01T15:59:46;20.90;83.30
17571;DHT22;8903;52.220;20.978;2022-09-01T16:02:13;20.80;83.20
17571;DHT22;8903;52.220;20.978;2022-09-01T16:04:45;20.60;83.80
17571;DHT22;8903;52.220;20.978;2022-09-01T16:07:12;20.50;84.40
17571;DHT22;8903;52.220;20.978;2022-09-01T16:09:39;20.40;84.50
17571;DHT22;8903;52.220;20.978;2022-09-01T16:12:06;20.30;85.20